Enid, Oklahoma
Current Conditions -  °F | °C
As of 2:50 PM on Saturday 22 Nov 2014 (Local Time) from KWDG Reporting Station
Overcast Overcast  
Wind Chill: 59°   Ceiling: 13000
Heat Index: 59°   Visibility: 10mi
Dew Point: 55°   Wind: 17mph
Humidity: 88%   Direction: 160°SSE
Pressure: 29.76"   Gusts: 25mph
Location:  36.4°N, 97.88°W
Report Text: KWDG 222050Z 16015G22KT 10SM SCT050 BKN130 OVC180 15/13 A2976
Loading
Personal Weather Stations






























Interactive Weather Map New forecast layout! Learn more

10-Day Weather Forecast

Advertisements
Track Severe Weather on mobile